createdAt,value
2019-02-07T00:03:13.489Z,98.00
2019-02-07T00:08:30.909Z,98.00
2019-02-07T00:13:47.791Z,98.00
2019-02-07T00:19:04.627Z,97.90
2019-02-07T00:24:22.079Z,97.70
2019-02-07T00:29:39.244Z,96.90
2019-02-07T00:34:56.889Z,96.60
2019-02-07T00:40:13.821Z,96.40
2019-02-07T00:45:30.917Z,96.20
2019-02-07T00:50:47.779Z,96.20
2019-02-07T00:56:05.013Z,96.00
2019-02-07T01:01:21.853Z,96.00
2019-02-07T01:06:39.144Z,95.50
2019-02-07T01:11:56.839Z,95.50
2019-02-07T01:17:13.788Z,95.70
2019-02-07T01:22:31.689Z,95.60
2019-02-07T01:27:48.566Z,96.00
2019-02-07T01:33:06.242Z,95.80
2019-02-07T01:38:24.060Z,95.70
2019-02-07T01:43:41.009Z,94.80
2019-02-07T01:48:58.113Z,94.00
2019-02-07T01:54:15.473Z,93.50
2019-02-07T01:59:32.483Z,92.30
2019-02-07T02:04:49.860Z,91.30
2019-02-07T02:10:07.209Z,91.30
2019-02-07T02:15:25.240Z,91.90
2019-02-07T02:20:42.334Z,91.60
2019-02-07T02:25:59.583Z,91.70
2019-02-07T02:31:16.908Z,91.40
2019-02-07T02:36:33.986Z,90.60
2019-02-07T02:41:51.038Z,90.70
2019-02-07T02:47:07.930Z,89.50
2019-02-07T02:52:25.181Z,90.50
2019-02-07T02:57:42.695Z,90.00
2019-02-07T03:03:18.640Z,89.20
2019-02-07T03:08:54.819Z,88.80
2019-02-07T03:14:30.847Z,89.60
2019-02-07T03:20:06.824Z,87.10
2019-02-07T03:25:36.527Z,87.70
2019-02-07T03:31:31.816Z,87.00
2019-02-07T03:37:08.098Z,85.60
2019-02-07T03:42:44.854Z,87.20
2019-02-07T03:48:21.160Z,86.60
2019-02-07T03:53:57.349Z,85.00
2019-02-07T03:59:33.943Z,86.40
2019-02-07T04:05:29.680Z,85.40
2019-02-07T04:11:05.804Z,85.10
2019-02-07T04:16:38.557Z,84.80
2019-02-07T04:22:17.905Z,85.60
2019-02-07T04:27:59.673Z,84.40
2019-02-07T04:33:55.127Z,84.00
2019-02-07T04:39:57.117Z,85.40
2019-02-07T04:45:33.510Z,83.90
2019-02-07T04:51:09.549Z,84.40
2019-02-07T04:56:26.436Z,84.20
2019-02-07T05:02:03.014Z,84.00
2019-02-07T05:07:36.279Z,84.30
2019-02-07T05:18:59.546Z,82.20
2019-02-07T05:24:41.611Z,83.20
2019-02-07T05:30:20.557Z,83.60
2019-02-07T05:36:16.357Z,83.30
2019-02-07T05:41:58.452Z,83.50
2019-02-07T05:47:34.398Z,81.40
2019-02-07T05:53:04.918Z,81.80
2019-02-07T05:58:44.653Z,82.30
2019-02-07T06:04:20.430Z,81.90
2019-02-07T06:09:56.632Z,82.40
2019-02-07T06:15:32.663Z,82.60
2019-02-07T06:21:31.706Z,82.90
2019-02-07T06:27:10.566Z,82.40
2019-02-07T06:32:46.607Z,82.10
2019-02-07T06:38:25.895Z,83.30
2019-02-07T06:44:01.738Z,83.80
2019-02-07T06:49:37.712Z,83.90
2019-02-07T06:55:16.663Z,84.40
2019-02-07T07:00:52.913Z,83.80
2019-02-07T07:06:28.715Z,84.00
2019-02-07T07:12:05.204Z,84.40
2019-02-07T07:17:40.956Z,84.70
2019-02-07T07:34:48.960Z,85.40
2019-02-07T07:40:50.616Z,85.00
2019-02-07T07:46:25.308Z,85.00
2019-02-07T07:52:20.776Z,85.40
2019-02-07T07:57:57.046Z,85.40
2019-02-07T08:03:33.102Z,85.50
2019-02-07T08:09:11.975Z,85.80
2019-02-07T08:15:09.291Z,85.90
2019-02-07T08:20:44.936Z,85.10
2019-02-07T08:26:21.390Z,85.20
2019-02-07T08:32:01.229Z,85.10
2019-02-07T08:37:30.506Z,84.70
2019-02-07T08:43:27.615Z,84.70
2019-02-07T08:49:04.702Z,84.70
2019-02-07T08:54:41.193Z,84.60
2019-02-07T09:00:16.920Z,85.10
2019-02-07T09:05:58.597Z,84.80
2019-02-07T09:11:34.428Z,85.00
2019-02-07T09:17:10.586Z,85.10
2019-02-07T09:22:46.695Z,85.10
2019-02-07T09:34:01.212Z,84.30
2019-02-07T09:39:34.566Z,84.20
2019-02-07T09:45:29.808Z,83.60
2019-02-07T09:51:12.213Z,83.40
2019-02-07T09:57:09.274Z,83.90
2019-02-07T10:02:45.832Z,83.40
2019-02-07T10:08:43.078Z,83.50
2019-02-07T10:14:25.261Z,83.70
2019-02-07T10:20:26.761Z,83.70
2019-02-07T10:26:02.619Z,83.90
2019-02-07T10:37:27.168Z,83.40
2019-02-07T10:43:22.993Z,82.90
2019-02-07T10:48:59.351Z,83.70
2019-02-07T10:54:35.824Z,81.60
2019-02-07T11:06:16.790Z,81.10
2019-02-07T11:11:52.793Z,80.60
2019-02-07T11:17:28.771Z,81.00
2019-02-07T11:23:05.247Z,80.30
2019-02-07T11:28:47.297Z,80.00
2019-02-07T11:34:46.070Z,80.20
2019-02-07T11:40:21.797Z,80.20
2019-02-07T11:45:58.359Z,80.40
2019-02-07T11:51:34.736Z,79.50
2019-02-07T11:57:10.431Z,77.50
2019-02-07T12:02:46.903Z,77.80
2019-02-07T12:08:48.505Z,76.80
2019-02-07T12:14:47.096Z,77.20
2019-02-07T12:37:48.884Z,77.30
2019-02-07T12:43:24.538Z,78.60
2019-02-07T12:49:28.898Z,79.10
2019-02-07T12:55:01.124Z,79.40
2019-02-07T13:00:56.871Z,80.10
2019-02-07T13:12:20.853Z,79.80
2019-02-07T13:18:02.809Z,79.50
2019-02-07T13:23:38.425Z,79.20
2019-02-07T13:29:08.329Z,79.00
2019-02-07T13:35:05.711Z,79.40
2019-02-07T13:40:42.167Z,78.60
2019-02-07T13:46:17.882Z,78.50
2019-02-07T13:52:10.404Z,78.70
2019-02-07T13:58:05.425Z,79.50
2019-02-07T14:03:41.058Z,80.20
2019-02-07T14:09:17.014Z,80.40
2019-02-07T14:14:53.866Z,79.70
2019-02-07T14:20:30.146Z,79.40
2019-02-07T14:26:06.227Z,78.70
2019-02-07T14:31:42.242Z,79.00
2019-02-07T14:37:18.394Z,78.10
2019-02-07T14:42:54.702Z,79.20
2019-02-07T14:53:50.942Z,78.00
2019-02-07T14:59:07.852Z,77.10
2019-02-07T15:04:25.088Z,77.70
2019-02-07T15:09:43.122Z,76.70
2019-02-07T15:15:00.250Z,77.10
2019-02-07T15:20:25.750Z,77.30
2019-02-07T15:25:37.360Z,77.30
2019-02-07T15:30:54.227Z,78.20
2019-02-07T15:36:11.342Z,78.20
2019-02-07T15:41:28.620Z,78.50
2019-02-07T15:46:45.789Z,79.00
2019-02-07T15:52:03.173Z,79.60
2019-02-07T15:57:20.313Z,79.80
2019-02-07T16:08:12.863Z,80.30
2019-02-07T16:13:30.163Z,80.60
2019-02-07T16:18:47.139Z,80.80
2019-02-07T16:24:04.122Z,80.40
2019-02-07T16:29:21.859Z,80.50
2019-02-07T16:34:39.277Z,80.80
2019-02-07T16:39:56.276Z,80.20
2019-02-07T16:45:13.995Z,80.30
2019-02-07T16:50:31.731Z,80.70
2019-02-07T16:55:49.032Z,81.00
2019-02-07T17:01:06.711Z,80.60
2019-02-07T17:06:23.817Z,79.70
2019-02-07T17:11:41.061Z,80.10
2019-02-07T17:16:58.335Z,80.10
2019-02-07T17:22:15.319Z,80.50
2019-02-07T17:27:32.494Z,80.80
2019-02-07T17:32:49.552Z,80.90
2019-02-07T17:38:06.427Z,80.60
2019-02-07T17:43:23.376Z,80.30
2019-02-07T17:48:40.174Z,80.20
2019-02-07T17:53:57.843Z,80.00
2019-02-07T17:59:15.351Z,79.80
2019-02-07T18:04:32.219Z,79.40
2019-02-07T18:09:49.796Z,80.00
2019-02-07T18:15:07.025Z,79.80
2019-02-07T18:20:24.074Z,80.50
2019-02-07T18:25:40.878Z,81.10
2019-02-07T18:30:57.943Z,81.30
2019-02-07T18:36:14.795Z,81.50
2019-02-07T18:41:32.064Z,81.90
2019-02-07T18:46:50.024Z,82.10
2019-02-07T18:52:07.540Z,82.20
2019-02-07T18:57:24.648Z,82.50
2019-02-07T19:02:43.932Z,82.50
2019-02-07T19:08:01.018Z,82.60
2019-02-07T19:13:18.067Z,82.60
2019-02-07T19:18:35.199Z,82.70
2019-02-07T19:24:11.905Z,82.90
2019-02-07T19:29:48.275Z,83.20
2019-02-07T19:35:25.207Z,83.70
2019-02-07T19:41:01.653Z,84.10
2019-02-07T19:46:19.032Z,84.40
2019-02-07T19:51:36.326Z,84.50
2019-02-07T19:56:53.359Z,85.00
2019-02-07T20:02:10.255Z,85.20
2019-02-07T20:07:27.348Z,85.40
2019-02-07T20:12:44.176Z,85.80
2019-02-07T20:18:02.110Z,86.00
2019-02-07T20:23:19.335Z,86.10
2019-02-07T20:28:36.173Z,86.70
2019-02-07T20:33:52.972Z,86.40
2019-02-07T20:39:10.061Z,87.00
2019-02-07T20:44:27.627Z,87.00
2019-02-07T20:49:44.935Z,87.20
2019-02-07T20:55:02.566Z,87.70
2019-02-07T21:00:19.815Z,87.40
2019-02-07T21:05:37.257Z,87.50
2019-02-07T21:10:54.668Z,87.50
2019-02-07T21:16:11.952Z,87.50
2019-02-07T21:21:29.244Z,88.20
2019-02-07T21:26:46.940Z,88.50
2019-02-07T21:32:04.215Z,88.30
2019-02-07T21:37:21.470Z,88.30
2019-02-07T21:42:38.953Z,89.00
2019-02-07T21:47:56.027Z,88.60
2019-02-07T21:53:13.584Z,88.70
2019-02-07T21:58:30.435Z,89.40
2019-02-07T22:03:47.897Z,90.00
2019-02-07T22:09:05.514Z,90.00
2019-02-07T22:14:23.040Z,89.60
2019-02-07T22:19:40.179Z,89.70
2019-02-07T22:24:57.549Z,90.10
2019-02-07T22:30:15.100Z,90.10
2019-02-07T22:35:32.484Z,90.10
2019-02-07T22:40:49.502Z,90.50
2019-02-07T22:46:07.162Z,90.40
2019-02-07T22:51:24.320Z,90.50
2019-02-07T22:56:45.752Z,90.50
2019-02-07T23:02:00.462Z,90.80
2019-02-07T23:07:17.870Z,90.40
2019-02-07T23:12:34.979Z,90.60
2019-02-07T23:17:52.007Z,90.60
2019-02-07T23:23:09.280Z,90.80
2019-02-07T23:28:26.601Z,90.70
2019-02-07T23:33:43.820Z,90.70
2019-02-07T23:39:01.962Z,90.70
2019-02-07T23:44:19.388Z,90.80
2019-02-07T23:49:37.163Z,90.80
2019-02-07T23:54:54.086Z,90.80
